Time;durP1;ratioP1;P1;durP2;ratioP2;P2;SDS_P1;SDS_P2;PMS_P1;PMS_P2;Temp;Humidity;BMP_temperature;BMP_pressure;BME280_temperature;BME280_humidity;BME280_pressure;Samples;Min_cycle;Max_cycle;Signal;HPM_P1;HPM_P2
2022/12/05 00:00:02;;;;;;;40.20;21.03;;;;;;;1.89;100.00;100430.31;5082729;28;20512;-59
2022/12/05 00:02:28;;;;;;;53.97;23.40;;;;;;;1.71;100.00;100433.94;5083223;28;20476;-59
2022/12/05 00:04:55;;;;;;;53.00;23.23;;;;;;;1.87;100.00;100429.56;5097365;28;20467;-60
2022/12/05 00:07:21;;;;;;;41.13;22.13;;;;;;;1.83;100.00;100438.56;5102577;28;20513;-59
2022/12/05 00:09:51;;;;;;;48.13;23.17;;;;;;;1.73;100.00;100424.16;5093722;28;20474;-59
2022/12/05 00:12:18;;;;;;;43.53;23.00;;;;;;;1.84;100.00;100432.34;5083239;28;20567;-59
2022/12/05 00:14:46;;;;;;;38.50;21.77;;;;;;;1.93;100.00;100434.53;5083535;28;20448;-59
2022/12/05 00:17:12;;;;;;;44.77;22.63;;;;;;;1.81;100.00;100436.00;5082798;28;20512;-59
2022/12/05 00:19:39;;;;;;;49.07;23.87;;;;;;;1.89;100.00;100432.97;5083641;28;20479;-59
2022/12/05 00:22:06;;;;;;;43.73;21.67;;;;;;;1.88;100.00;100436.53;5088870;28;20501;-59
2022/12/05 00:24:32;;;;;;;43.20;23.50;;;;;;;1.97;100.00;100437.84;5099521;28;20460;-59
2022/12/05 00:26:59;;;;;;;42.00;21.47;;;;;;;1.87;100.00;100435.69;5098234;28;20479;-59
2022/12/05 00:29:25;;;;;;;37.13;21.20;;;;;;;1.86;100.00;100439.25;5089616;28;20575;-59
2022/12/05 00:31:53;;;;;;;44.23;22.27;;;;;;;1.99;100.00;100436.81;5074316;28;20723;-59
2022/12/05 00:34:20;;;;;;;41.43;21.40;;;;;;;1.98;100.00;100431.63;5081942;28;20448;-59
2022/12/05 00:36:47;;;;;;;38.20;19.70;;;;;;;1.84;100.00;100429.72;5093844;28;20475;-59
2022/12/05 00:39:14;;;;;;;42.00;22.10;;;;;;;2.01;100.00;100429.66;5104186;28;20489;-59
2022/12/05 00:41:41;;;;;;;38.83;21.57;;;;;;;2.07;100.00;100425.88;5103552;28;20546;-59
2022/12/05 00:44:08;;;;;;;37.30;21.17;;;;;;;1.92;100.00;100427.53;5071890;28;20472;-60
2022/12/05 00:46:35;;;;;;;31.07;19.77;;;;;;;1.84;100.00;100425.31;5071538;28;20479;-59
2022/12/05 00:49:05;;;;;;;36.40;19.50;;;;;;;1.85;100.00;100419.09;5089408;28;20462;-59
2022/12/05 00:51:33;;;;;;;34.10;20.10;;;;;;;1.95;100.00;100421.25;5101520;28;20486;-59
2022/12/05 00:54:02;;;;;;;34.00;20.73;;;;;;;2.06;100.00;100430.28;5097399;28;20487;-59
2022/12/05 00:56:30;;;;;;;34.63;19.97;;;;;;;1.90;100.00;100423.28;5082752;28;20507;-59
2022/12/05 00:58:58;;;;;;;32.20;18.60;;;;;;;1.94;100.00;100417.75;5104072;28;20576;-59
2022/12/05 01:01:26;;;;;;;36.50;20.03;;;;;;;1.99;100.00;100413.09;5088804;28;20504;-59
2022/12/05 01:03:56;;;;;;;36.97;20.47;;;;;;;1.98;100.00;100418.44;5091267;28;20979;-58
2022/12/05 01:06:25;;;;;;;31.00;18.97;;;;;;;2.09;100.00;100417.88;5082172;28;20525;-68
2022/12/05 01:08:53;;;;;;;26.23;17.10;;;;;;;2.02;100.00;100406.81;5082967;28;20516;-57
2022/12/05 01:11:20;;;;;;;29.80;17.70;;;;;;;2.07;100.00;100410.06;5083182;28;20512;-57
2022/12/05 01:13:47;;;;;;;32.50;19.23;;;;;;;2.09;100.00;100407.34;5064071;28;20441;-57
2022/12/05 01:16:15;;;;;;;32.60;19.80;;;;;;;2.11;100.00;100408.09;5081035;28;20488;-57
2022/12/05 01:18:41;;;;;;;32.80;19.30;;;;;;;2.09;100.00;100410.81;5083572;28;20448;-58
2022/12/05 01:21:08;;;;;;;31.77;18.40;;;;;;;2.05;100.00;100412.78;5103130;28;20475;-57
2022/12/05 01:23:36;;;;;;;34.60;19.00;;;;;;;2.04;100.00;100413.69;5090748;28;20556;-57
2022/12/05 01:26:06;;;;;;;32.83;18.77;;;;;;;2.10;100.00;100417.81;5083069;28;20499;-57
2022/12/05 01:28:33;;;;;;;30.47;19.33;;;;;;;2.18;100.00;100418.22;5084058;28;20479;-57
2022/12/05 01:31:04;;;;;;;33.27;18.70;;;;;;;2.14;100.00;100424.63;5082782;28;20492;-58
2022/12/05 01:33:31;;;;;;;36.73;21.27;;;;;;;2.10;100.00;100428.34;5082670;28;20531;-58
2022/12/05 01:35:58;;;;;;;34.90;18.50;;;;;;;2.18;100.00;100423.50;5102230;28;20498;-57
2022/12/05 01:38:24;;;;;;;32.47;19.10;;;;;;;2.18;100.00;100428.78;5103899;28;20466;-58
2022/12/05 01:40:59;;;;;;;34.50;20.03;;;;;;;2.25;100.00;100426.66;5087285;28;20507;-57
2022/12/05 01:43:26;;;;;;;32.40;17.83;;;;;;;2.34;100.00;100425.31;5086201;28;20516;-58
2022/12/05 01:45:53;;;;;;;32.83;18.70;;;;;;;2.32;100.00;100425.38;5088969;28;20471;-58
2022/12/05 01:48:26;;;;;;;30.03;17.97;;;;;;;2.03;100.00;100421.69;5100829;28;20546;-57
2022/12/05 01:50:53;;;;;;;35.80;20.00;;;;;;;2.25;100.00;100422.22;5093575;28;20477;-57
2022/12/05 01:53:19;;;;;;;31.40;19.60;;;;;;;2.27;100.00;100419.50;5085124;28;20525;-57
2022/12/05 01:55:47;;;;;;;30.27;18.57;;;;;;;2.29;100.00;100420.28;5102560;28;20491;-58
2022/12/05 01:58:16;;;;;;;31.07;18.87;;;;;;;2.23;100.00;100421.47;5090422;28;20453;-58
2022/12/05 02:00:43;;;;;;;32.00;18.93;;;;;;;2.22;100.00;100432.97;5087656;28;20471;-57
2022/12/05 02:03:12;;;;;;;34.33;20.10;;;;;;;2.32;100.00;100421.91;5102611;28;20503;-57
2022/12/05 02:05:39;;;;;;;30.70;20.63;;;;;;;2.18;100.00;100428.78;5101905;28;20467;-57
2022/12/05 02:08:07;;;;;;;32.50;19.20;;;;;;;2.26;100.00;100420.47;5097625;28;20504;-57
2022/12/05 02:10:36;;;;;;;33.57;20.10;;;;;;;2.21;100.00;100436.53;5082286;28;20499;-57
2022/12/05 02:13:18;;;;;;;27.83;16.93;;;;;;;2.42;100.00;100431.88;5101400;28;20474;-57
2022/12/05 02:15:51;;;;;;;30.03;17.33;;;;;;;2.20;100.00;100432.19;5101961;28;20475;-57
2022/12/05 02:18:33;;;;;;;36.03;18.40;;;;;;;2.19;100.00;100427.84;5098551;28;20520;-58
2022/12/05 02:21:18;;;;;;;30.90;19.30;;;;;;;2.27;100.00;100424.78;5080737;28;20488;-57
2022/12/05 02:24:09;;;;;;;30.50;18.63;;;;;;;2.29;100.00;100428.19;5102755;28;20447;-58
2022/12/05 02:26:48;;;;;;;35.93;17.87;;;;;;;2.33;100.00;100423.63;5102148;28;20475;-57
2022/12/05 02:29:50;;;;;;;32.83;19.83;;;;;;;2.32;100.00;100425.38;5101514;28;20503;-57
2022/12/05 02:32:24;;;;;;;26.80;16.53;;;;;;;2.39;100.00;100433.84;5101919;28;21078;-58
2022/12/05 02:34:57;;;;;;;32.90;19.70;;;;;;;2.36;100.00;100432.22;5102690;28;20537;-58
2022/12/05 02:37:28;;;;;;;30.30;18.70;;;;;;;2.36;100.00;100428.72;5082082;28;20498;-57
2022/12/05 02:40:00;;;;;;;34.00;19.27;;;;;;;2.43;100.00;100419.53;5101679;28;20458;-58
2022/12/05 02:42:30;;;;;;;30.03;18.10;;;;;;;2.40;100.00;100425.84;5101880;28;20483;-58
2022/12/05 02:44:58;;;;;;;30.33;19.47;;;;;;;2.40;100.00;100419.72;5101722;28;20908;-58
2022/12/05 02:47:29;;;;;;;32.70;19.20;;;;;;;2.23;100.00;100415.34;5100159;28;20511;-58
2022/12/05 02:49:56;;;;;;;30.33;18.33;;;;;;;2.33;100.00;100416.56;5097222;28;20484;-58
2022/12/05 02:52:24;;;;;;;30.87;18.83;;;;;;;2.17;100.00;100421.81;5081147;28;20586;-58
2022/12/05 02:54:53;;;;;;;27.93;18.90;;;;;;;2.12;100.00;100421.22;5098337;28;20440;-58
2022/12/05 02:57:21;;;;;;;31.20;18.40;;;;;;;1.97;100.00;100422.88;5100575;28;20574;-58
2022/12/05 02:59:47;;;;;;;31.40;17.90;;;;;;;2.12;100.00;100423.84;5098890;28;20479;-57
2022/12/05 03:02:24;;;;;;;36.20;20.17;;;;;;;2.07;100.00;100425.88;5101373;28;20498;-57
2022/12/05 03:04:52;;;;;;;30.57;18.23;;;;;;;2.15;100.00;100422.81;5087192;28;20492;-57
2022/12/05 03:07:20;;;;;;;30.83;18.53;;;;;;;2.19;100.00;100430.50;5090195;28;20496;-58
2022/12/05 03:09:49;;;;;;;26.20;17.77;;;;;;;2.17;100.00;100423.59;5081811;28;20996;-58
2022/12/05 03:12:19;;;;;;;28.77;17.87;;;;;;;2.02;100.00;100430.53;5080705;28;20500;-57
2022/12/05 03:14:48;;;;;;;33.90;19.93;;;;;;;1.93;100.00;100412.56;5081364;28;20946;-57
2022/12/05 03:17:18;;;;;;;30.57;18.70;;;;;;;1.97;100.00;100419.38;5087857;28;20503;-58
2022/12/05 03:19:50;;;;;;;33.33;19.33;;;;;;;2.03;100.00;100426.97;5088633;28;20452;-58
2022/12/05 03:22:22;;;;;;;29.57;18.47;;;;;;;2.14;100.00;100416.69;5096710;28;20534;-58
2022/12/05 03:24:49;;;;;;;33.37;19.40;;;;;;;2.29;100.00;100422.91;5077183;28;20455;-58
2022/12/05 03:27:22;;;;;;;32.97;18.10;;;;;;;2.12;100.00;100418.56;5080732;28;20486;-59
2022/12/05 03:29:51;;;;;;;31.57;18.53;;;;;;;2.18;100.00;100418.22;5081687;28;20460;-57
2022/12/05 03:32:23;;;;;;;27.70;17.27;;;;;;;2.21;100.00;100414.59;5086104;28;20570;-58
2022/12/05 03:35:03;;;;;;;29.63;17.53;;;;;;;2.16;100.00;100417.47;5095649;28;20527;-58
2022/12/05 03:37:38;;;;;;;32.17;20.77;;;;;;;2.01;100.00;100420.91;5082377;28;20472;-57
2022/12/05 03:40:08;;;;;;;29.87;18.17;;;;;;;1.98;100.00;100413.16;5101691;28;20467;-57
2022/12/05 03:42:37;;;;;;;32.37;18.67;;;;;;;2.02;100.00;100412.09;5092553;28;20495;-58
2022/12/05 03:45:07;;;;;;;32.43;20.87;;;;;;;2.14;100.00;100415.84;5089293;28;20458;-58
2022/12/05 03:47:39;;;;;;;32.40;17.97;;;;;;;2.08;100.00;100419.66;5097986;28;21012;-57
2022/12/05 03:50:10;;;;;;;35.40;20.57;;;;;;;2.16;100.00;100416.63;5080478;28;20751;-58
2022/12/05 03:52:43;;;;;;;29.10;18.63;;;;;;;2.17;100.00;100421.81;5080705;28;20551;-57
2022/12/05 03:55:12;;;;;;;38.67;20.27;;;;;;;2.17;100.00;100427.09;5085524;28;20506;-57
2022/12/05 03:57:43;;;;;;;32.57;18.73;;;;;;;2.19;100.00;100419.94;5101480;28;20580;-57
2022/12/05 04:00:11;;;;;;;26.73;17.10;;;;;;;2.19;100.00;100421.75;5084156;28;20488;-58
2022/12/05 04:02:44;;;;;;;33.90;19.53;;;;;;;2.16;100.00;100414.81;5091407;28;20472;-57
2022/12/05 04:05:15;;;;;;;35.70;19.27;;;;;;;2.25;100.00;100408.19;5060464;28;20460;-57
2022/12/05 04:07:45;;;;;;;31.53;19.00;;;;;;;2.17;100.00;100407.75;5091969;28;20543;-57
2022/12/05 04:10:16;;;;;;;30.43;17.87;;;;;;;2.22;100.00;100411.00;5100002;28;20966;-58
2022/12/05 04:12:45;;;;;;;34.73;20.40;;;;;;;2.22;100.00;100417.16;5101388;28;20515;-58
2022/12/05 04:15:15;;;;;;;30.13;18.60;;;;;;;2.22;100.00;100418.91;5080882;28;20472;-58
2022/12/05 04:17:46;;;;;;;33.90;19.77;;;;;;;2.31;100.00;100412.28;5089553;28;20440;-58
2022/12/05 04:23:00;;;;;;;35.23;19.73;;;;;;;2.23;100.00;100418.00;5093913;28;20501;-58
2022/12/05 04:25:33;;;;;;;37.00;21.37;;;;;;;2.26;100.00;100416.03;5098919;28;20494;-57
2022/12/05 04:28:08;;;;;;;32.90;20.20;;;;;;;2.23;100.00;100418.00;5102706;28;20991;-57
2022/12/05 04:30:39;;;;;;;28.57;17.80;;;;;;;2.38;100.00;100416.31;5104008;28;20497;-58
2022/12/05 04:33:08;;;;;;;37.83;20.33;;;;;;;2.32;100.00;100414.84;5103970;28;20578;-58
2022/12/05 04:35:38;;;;;;;29.70;20.03;;;;;;;2.30;100.00;100419.34;5098636;28;21161;-57
2022/12/05 04:38:09;;;;;;;40.53;20.93;;;;;;;2.36;100.00;100419.03;5104209;28;21349;-58
2022/12/05 04:40:39;;;;;;;33.10;19.23;;;;;;;2.42;100.00;100417.84;5102627;28;20502;-58
2022/12/05 04:43:06;;;;;;;36.83;21.10;;;;;;;2.18;100.00;100422.66;5086843;28;20472;-58
2022/12/05 04:45:34;;;;;;;35.47;20.00;;;;;;;2.30;100.00;100421.16;5083624;28;21043;-57
2022/12/05 04:48:04;;;;;;;36.73;21.93;;;;;;;2.17;100.00;100418.31;5083978;28;20503;-58
2022/12/05 04:50:33;;;;;;;32.77;19.50;;;;;;;2.34;100.00;100412.13;5100178;28;20538;-58
2022/12/05 04:53:01;;;;;;;35.90;18.97;;;;;;;2.21;100.00;100415.44;5097804;28;20802;-57
2022/12/05 04:55:31;;;;;;;37.57;21.50;;;;;;;2.24;100.00;100420.53;5083459;28;20492;-57
2022/12/05 04:58:03;;;;;;;34.57;20.10;;;;;;;2.33;100.00;100416.56;5103867;28;20519;-57
2022/12/05 05:00:31;;;;;;;37.53;19.67;;;;;;;2.30;100.00;100415.88;5097150;28;20490;-58
2022/12/05 05:03:01;;;;;;;30.53;19.13;;;;;;;2.34;100.00;100417.41;5063867;28;20468;-57
2022/12/05 05:05:31;;;;;;;34.63;18.53;;;;;;;2.29;100.00;100420.28;5070472;28;20468;-60
2022/12/05 05:07:57;;;;;;;42.90;23.20;;;;;;;2.03;100.00;100414.66;5100318;28;20507;-57
2022/12/05 05:10:31;;;;;;;42.40;22.13;;;;;;;2.22;100.00;100417.16;5083401;28;20488;-57
2022/12/05 05:12:59;;;;;;;39.10;22.10;;;;;;;2.29;100.00;100411.53;5083328;28;20508;-56
2022/12/05 05:15:25;;;;;;;35.33;21.20;;;;;;;2.25;100.00;100411.69;5083041;28;20476;-56
2022/12/05 05:17:52;;;;;;;40.40;21.80;;;;;;;2.19;100.00;100412.03;5082029;28;20451;-58
2022/12/05 05:20:25;;;;;;;34.50;20.87;;;;;;;2.21;100.00;100418.06;5101468;28;20475;-56
2022/12/05 05:22:53;;;;;;;37.60;21.90;;;;;;;2.17;100.00;100413.91;5102548;28;20455;-57
2022/12/05 05:25:20;;;;;;;36.33;20.30;;;;;;;2.19;100.00;100416.47;5097004;28;20883;-57
2022/12/05 05:27:50;;;;;;;36.37;20.77;;;;;;;2.31;100.00;100410.50;5081154;28;20468;-57
2022/12/05 05:30:19;;;;;;;35.67;21.73;;;;;;;2.21;100.00;100422.50;5083128;28;20468;-57
2022/12/05 05:32:46;;;;;;;39.97;22.57;;;;;;;2.18;100.00;100422.66;5084786;28;20560;-57
2022/12/05 05:35:12;;;;;;;39.03;21.33;;;;;;;2.18;100.00;100423.50;5097840;28;20451;-58
2022/12/05 05:37:40;;;;;;;43.13;23.27;;;;;;;2.25;100.00;100426.66;5083152;28;20455;-58
2022/12/05 05:40:08;;;;;;;40.43;20.83;;;;;;;2.17;100.00;100418.31;5062713;28;20486;-58
2022/12/05 05:42:34;;;;;;;39.07;21.53;;;;;;;2.22;100.00;100417.16;5078402;28;20476;-58
2022/12/05 05:45:01;;;;;;;36.77;20.53;;;;;;;2.25;100.00;100430.16;5082844;28;20460;-61
2022/12/05 05:47:29;;;;;;;35.30;21.70;;;;;;;2.33;100.00;100423.63;5080945;28;20547;-58
2022/12/05 05:49:55;;;;;;;46.93;20.43;;;;;;;2.28;100.00;100428.31;5082791;28;20557;-58
2022/12/05 05:52:22;;;;;;;34.87;21.60;;;;;;;2.12;100.00;100423.84;5081569;28;20541;-58
2022/12/05 05:54:49;;;;;;;39.40;23.20;;;;;;;2.22;100.00;100424.19;5084400;28;20487;-58
2022/12/05 05:57:15;;;;;;;38.03;22.17;;;;;;;2.14;100.00;100421.97;5082270;28;20559;-58
2022/12/05 05:59:42;;;;;;;35.30;20.73;;;;;;;2.16;100.00;100430.66;5082637;28;21041;-57
2022/12/05 06:02:08;;;;;;;37.33;22.77;;;;;;;2.29;100.00;100432.63;5082096;28;20511;-58
2022/12/05 06:04:36;;;;;;;38.73;22.20;;;;;;;2.12;100.00;100438.81;5082670;28;20447;-58
2022/12/05 06:07:03;;;;;;;34.50;20.60;;;;;;;2.13;100.00;100436.09;5086268;28;20506;-59
2022/12/05 06:09:29;;;;;;;34.40;20.23;;;;;;;2.29;100.00;100432.63;5089776;28;20552;-59
2022/12/05 06:11:56;;;;;;;44.13;21.60;;;;;;;2.10;100.00;100435.41;5090449;28;20506;-59
2022/12/05 06:14:23;;;;;;;38.57;21.97;;;;;;;2.32;100.00;100443.03;5062838;28;20461;-59
2022/12/05 06:16:49;;;;;;;33.63;20.20;;;;;;;2.34;100.00;100443.78;5095661;28;20551;-59
2022/12/05 06:19:16;;;;;;;33.13;19.60;;;;;;;2.29;100.00;100438.75;5102360;28;20444;-59
2022/12/05 06:21:44;;;;;;;33.77;20.57;;;;;;;2.42;100.00;100437.16;5097480;28;20513;-59
2022/12/05 06:24:10;;;;;;;31.90;20.50;;;;;;;2.42;100.00;100436.31;5100441;28;20463;-59
2022/12/05 06:26:37;;;;;;;33.57;20.27;;;;;;;2.36;100.00;100444.53;5100393;28;20514;-59
2022/12/05 06:29:04;;;;;;;37.17;21.93;;;;;;;2.28;100.00;100442.34;5096917;28;20536;-58
2022/12/05 06:31:32;;;;;;;35.40;20.83;;;;;;;2.52;100.00;100444.56;5099764;28;20921;-59
2022/12/05 06:34:00;;;;;;;34.00;19.73;;;;;;;2.39;100.00;100442.59;5098010;28;20443;-59
2022/12/05 06:36:28;;;;;;;62.23;33.10;;;;;;;2.33;100.00;100445.56;5100957;28;20504;-58
2022/12/05 06:38:56;;;;;;;34.60;22.30;;;;;;;2.30;100.00;100447.53;5091948;28;20453;-59
2022/12/05 06:41:24;;;;;;;52.57;29.63;;;;;;;2.30;100.00;100452.81;5080610;28;20502;-59
2022/12/05 06:43:52;;;;;;;38.70;24.37;;;;;;;2.23;100.00;100447.84;5084607;28;20971;-58
2022/12/05 06:46:20;;;;;;;45.63;27.07;;;;;;;2.10;100.00;100451.22;5085077;28;20487;-58
2022/12/05 06:48:46;;;;;;;48.43;29.17;;;;;;;2.14;100.00;100450.16;5074099;28;20484;-59
2022/12/05 06:51:16;;;;;;;71.00;41.30;;;;;;;2.19;100.00;100454.22;5073853;28;20499;-59
2022/12/05 06:53:43;;;;;;;60.90;31.53;;;;;;;2.17;100.00;100457.88;5100918;28;20467;-58
2022/12/05 06:56:13;;;;;;;38.57;22.87;;;;;;;2.27;100.00;100453.81;5081957;28;20476;-59
2022/12/05 06:58:40;;;;;;;31.00;18.33;;;;;;;2.31;100.00;100462.41;5068085;28;20453;-59
2022/12/05 07:03:55;;;;;;;25.33;18.70;;;;;;;2.19;100.00;100461.31;5061399;28;20441;-59
2022/12/05 07:06:23;;;;;;;29.00;17.47;;;;;;;2.17;100.00;100464.03;5071000;28;21027;-65
2022/12/05 07:08:50;;;;;;;27.80;17.03;;;;;;;2.09;100.00;100463.56;5080924;28;20516;-65
2022/12/05 07:11:18;;;;;;;25.70;17.10;;;;;;;2.19;100.00;100464.78;5060240;28;20481;-65
2022/12/05 07:13:45;;;;;;;25.50;17.83;;;;;;;2.30;100.00;100471.28;5067619;28;20447;-66
2022/12/05 07:16:11;;;;;;;28.57;17.47;;;;;;;2.32;100.00;100472.88;5060537;28;20504;-66
2022/12/05 07:18:38;;;;;;;24.60;16.30;;;;;;;2.31;100.00;100468.56;5089586;28;20459;-66
2022/12/05 07:21:06;;;;;;;23.03;15.63;;;;;;;2.26;100.00;100473.22;5089988;28;20477;-66
2022/12/05 07:23:33;;;;;;;22.00;17.13;;;;;;;2.10;100.00;100473.19;5080786;28;20692;-66
2022/12/05 07:26:00;;;;;;;32.63;20.23;;;;;;;2.09;100.00;100479.38;5095425;28;20523;-66
2022/12/05 07:28:28;;;;;;;27.17;18.60;;;;;;;2.08;100.00;100475.03;5090374;28;20460;-61
2022/12/05 07:31:01;;;;;;;29.60;18.30;;;;;;;2.15;100.00;100470.28;5087479;28;20487;-58
2022/12/05 07:33:28;;;;;;;26.67;18.13;;;;;;;2.13;100.00;100474.81;5100342;28;20475;-58
2022/12/05 07:35:59;;;;;;;21.63;15.00;;;;;;;2.15;100.00;100475.56;5092114;28;20471;-64
2022/12/05 07:38:26;;;;;;;25.40;16.67;;;;;;;2.09;100.00;100481.19;5097526;28;20480;-65
2022/12/05 07:40:53;;;;;;;27.23;16.67;;;;;;;2.09;100.00;100475.91;5087651;28;20487;-61
2022/12/05 07:43:19;;;;;;;29.53;17.57;;;;;;;2.15;100.00;100476.41;5079677;28;20456;-59
2022/12/05 07:45:47;;;;;;;25.73;18.50;;;;;;;2.14;100.00;100477.38;5087422;28;20462;-59
2022/12/05 07:48:14;;;;;;;27.83;17.90;;;;;;;1.92;100.00;100479.41;5096459;28;20892;-59
2022/12/05 07:50:40;;;;;;;24.77;17.07;;;;;;;2.02;100.00;100475.38;5078793;28;20500;-60
2022/12/05 07:53:07;;;;;;;25.10;16.17;;;;;;;1.95;100.00;100476.63;5091288;28;20460;-61
2022/12/05 07:55:34;;;;;;;26.70;15.50;;;;;;;1.70;100.00;100480.50;5098891;28;20554;-61
2022/12/05 07:58:00;;;;;;;26.10;17.00;;;;;;;1.82;100.00;100482.53;5079137;28;20436;-61
2022/12/05 08:00:27;;;;;;;20.60;15.30;;;;;;;1.85;100.00;100479.72;5080204;28;21297;-61
2022/12/05 08:02:55;;;;;;;20.67;14.93;;;;;;;1.80;100.00;100486.16;5086405;28;20463;-60
2022/12/05 08:05:21;;;;;;;21.27;14.17;;;;;;;1.80;100.00;100487.00;5103227;28;20438;-61
2022/12/05 08:07:48;;;;;;;24.20;15.80;;;;;;;1.81;100.00;100491.38;5103330;28;20513;-60
2022/12/05 08:10:15;;;;;;;25.03;16.07;;;;;;;1.94;100.00;100483.66;5103184;28;20487;-59
2022/12/05 08:12:41;;;;;;;23.43;15.70;;;;;;;1.83;100.00;100486.88;5103413;28;20495;-58
2022/12/05 08:15:09;;;;;;;25.93;17.17;;;;;;;1.99;100.00;100489.56;5087058;28;20539;-57
2022/12/05 08:17:36;;;;;;;22.87;15.90;;;;;;;1.91;100.00;100490.88;5078651;28;20482;-57
2022/12/05 08:20:05;;;;;;;30.73;17.87;;;;;;;1.77;100.00;100494.22;5102831;28;20486;-58
2022/12/05 08:22:31;;;;;;;24.13;14.80;;;;;;;1.81;100.00;100495.81;5085958;28;20503;-58
2022/12/05 08:24:58;;;;;;;20.83;14.10;;;;;;;1.82;100.00;100492.22;5093003;28;20508;-58
2022/12/05 08:27:25;;;;;;;24.17;15.90;;;;;;;1.76;100.00;100493.38;5102172;28;20510;-58
2022/12/05 08:29:53;;;;;;;26.63;16.30;;;;;;;1.67;100.00;100494.72;5103567;28;20529;-58
2022/12/05 08:32:20;;;;;;;25.03;15.03;;;;;;;1.53;100.00;100488.41;5086806;28;20571;-58
2022/12/05 08:34:46;;;;;;;21.43;15.27;;;;;;;1.62;100.00;100499.34;5086619;28;20479;-58
2022/12/05 08:37:14;;;;;;;21.70;14.30;;;;;;;1.68;100.00;100499.06;5096025;28;20507;-58
2022/12/05 08:39:41;;;;;;;21.90;15.03;;;;;;;1.60;100.00;100503.00;5091326;28;20471;-58
2022/12/05 08:42:08;;;;;;;22.10;14.60;;;;;;;1.73;100.00;100503.25;5085284;28;20479;-59
2022/12/05 08:44:34;;;;;;;24.87;16.90;;;;;;;1.60;100.00;100508.28;5082970;28;20483;-58
2022/12/05 08:47:01;;;;;;;22.90;15.50;;;;;;;1.66;100.00;100507.97;5081692;28;20496;-57
2022/12/05 08:49:28;;;;;;;23.33;16.90;;;;;;;1.59;100.00;100509.19;5079346;28;20511;-58
2022/12/05 08:51:54;;;;;;;26.30;16.30;;;;;;;1.60;100.00;100505.66;5081624;28;21259;-58
2022/12/05 08:54:22;;;;;;;38.23;24.20;;;;;;;1.53;100.00;100509.50;5082766;28;20467;-58
2022/12/05 08:56:51;;;;;;;22.67;14.70;;;;;;;1.71;100.00;100513.84;5081121;28;20551;-58
2022/12/05 08:59:18;;;;;;;24.63;15.27;;;;;;;1.59;100.00;100514.47;5082826;28;20500;-58
2022/12/05 09:01:44;;;;;;;24.37;14.27;;;;;;;1.81;100.00;100509.81;5082171;28;20472;-58
2022/12/05 09:04:11;;;;;;;22.93;14.60;;;;;;;1.65;100.00;100517.66;5081266;28;20453;-58
2022/12/05 09:06:40;;;;;;;27.17;15.17;;;;;;;1.29;100.00;100517.69;5081658;28;20483;-58
2022/12/05 09:09:10;;;;;;;22.07;15.57;;;;;;;1.48;100.00;100515.84;5082110;28;20923;-58
2022/12/05 09:11:42;;;;;;;28.87;17.03;;;;;;;1.35;100.00;100512.13;5085114;28;20473;-58
2022/12/05 09:14:09;;;;;;;22.03;13.70;;;;;;;1.46;100.00;100517.72;5079171;28;20524;-58
2022/12/05 09:16:37;;;;;;;25.93;15.77;;;;;;;1.55;100.00;100518.19;5083674;28;20472;-58
2022/12/05 09:19:04;;;;;;;18.70;12.70;;;;;;;1.54;100.00;100519.97;5080662;28;20493;-58
2022/12/05 09:21:31;;;;;;;25.77;16.30;;;;;;;1.62;100.00;100511.69;5082036;28;20492;-58
2022/12/05 09:23:59;;;;;;;22.33;14.60;;;;;;;1.52;100.00;100513.06;5082317;28;20492;-58
2022/12/05 09:26:27;;;;;;;21.10;14.90;;;;;;;1.27;100.00;100509.03;5080410;28;20500;-58
2022/12/05 09:28:55;;;;;;;19.90;14.70;;;;;;;1.47;100.00;100513.28;5085441;28;20456;-58
2022/12/05 09:31:23;;;;;;;20.30;14.80;;;;;;;1.57;100.00;100521.59;5081302;28;20551;-58
2022/12/05 09:33:51;;;;;;;21.73;14.60;;;;;;;1.43;100.00;100523.13;5079586;28;20555;-58
2022/12/05 09:36:20;;;;;;;19.77;14.20;;;;;;;1.47;100.00;100523.84;5077332;28;20535;-58
2022/12/05 09:38:47;;;;;;;18.90;14.20;;;;;;;1.50;100.00;100528.97;5082023;28;20480;-59
2022/12/05 09:42:03;;;;;;;17.97;13.33;;;;;;;1.55;100.00;100523.47;5080336;28;20562;-58
2022/12/05 09:44:16;;;;;;;23.13;15.50;;;;;;;1.60;100.00;100526.72;5079664;28;20464;-58
2022/12/05 09:46:49;;;;;;;21.00;14.87;;;;;;;1.67;100.00;100522.84;5080766;28;20490;-58
2022/12/05 09:49:16;;;;;;;19.97;15.33;;;;;;;1.75;100.00;100525.94;5079891;28;20500;-59
2022/12/05 09:51:46;;;;;;;22.90;15.90;;;;;;;1.72;100.00;100523.47;5080499;28;20492;-58
2022/12/05 09:54:13;;;;;;;20.10;15.27;;;;;;;1.74;100.00;100526.03;5085069;28;20447;-58
2022/12/05 09:56:40;;;;;;;24.27;16.03;;;;;;;1.82;100.00;100519.44;5079235;28;20504;-60
2022/12/05 09:59:14;;;;;;;20.20;14.47;;;;;;;1.75;100.00;100523.31;5081311;28;20441;-60
2022/12/05 10:01:44;;;;;;;21.93;15.20;;;;;;;1.72;100.00;100525.25;5077928;28;20472;-63
2022/12/05 10:04:44;;;;;;;19.33;14.67;;;;;;;1.73;100.00;100522.53;5076485;28;20448;-58
2022/12/05 10:07:18;;;;;;;23.00;16.07;;;;;;;1.77;100.00;100517.97;5079599;28;20528;-58
2022/12/05 10:09:53;;;;;;;18.90;14.50;;;;;;;1.78;100.00;100517.88;5081043;28;20484;-60
2022/12/05 10:12:34;;;;;;;23.60;16.80;;;;;;;1.80;100.00;100523.09;5079598;28;20525;-59
2022/12/05 10:15:08;;;;;;;19.50;14.37;;;;;;;1.83;100.00;100518.50;5077170;28;20531;-60
2022/12/05 10:17:38;;;;;;;23.23;16.53;;;;;;;1.75;100.00;100520.66;5079915;28;20475;-59
2022/12/05 10:20:10;;;;;;;25.50;20.57;;;;;;;1.75;100.00;100520.66;5080111;28;20444;-59
2022/12/05 10:22:42;;;;;;;21.90;15.93;;;;;;;1.62;100.00;100522.22;5080459;28;20480;-58
2022/12/05 10:25:10;;;;;;;21.27;15.93;;;;;;;1.58;100.00;100523.28;5069463;28;20915;-59
2022/12/05 10:27:38;;;;;;;20.60;15.50;;;;;;;1.62;100.00;100516.97;5063391;28;20465;-59
2022/12/05 10:30:13;;;;;;;20.57;15.53;;;;;;;1.71;100.00;100519.13;5080861;28;20522;-59
2022/12/05 10:32:45;;;;;;;19.47;16.10;;;;;;;1.69;100.00;100523.63;5080188;28;20590;-59
2022/12/05 10:35:16;;;;;;;22.83;17.77;;;;;;;1.71;100.00;100513.00;5080683;28;20449;-59
2022/12/05 10:37:47;;;;;;;20.80;16.70;;;;;;;1.74;100.00;100508.44;5081263;28;20472;-59
2022/12/05 10:40:14;;;;;;;23.00;16.10;;;;;;;1.81;100.00;100514.25;5079668;28;20505;-59
2022/12/05 10:42:41;;;;;;;22.87;19.17;;;;;;;1.83;100.00;100510.59;5071489;28;20510;-59
2022/12/05 10:45:15;;;;;;;25.87;21.03;;;;;;;1.95;100.00;100505.63;5060483;28;20966;-59
2022/12/05 10:47:42;;;;;;;20.10;15.43;;;;;;;2.01;100.00;100503.50;5092188;28;20467;-59
2022/12/05 10:50:20;;;;;;;23.83;15.87;;;;;;;1.93;100.00;100499.56;5096842;28;20546;-59
2022/12/05 10:52:47;;;;;;;20.53;16.57;;;;;;;2.01;100.00;100497.38;5081104;28;20494;-58
2022/12/05 10:55:16;;;;;;;21.67;16.03;;;;;;;2.09;100.00;100502.28;5097058;28;20444;-59
2022/12/05 10:57:47;;;;;;;21.30;17.23;;;;;;;2.10;100.00;100507.47;5095210;28;20471;-59
2022/12/05 11:00:17;;;;;;;23.40;16.53;;;;;;;2.16;100.00;100496.59;5086101;28;20445;-58
2022/12/05 11:02:43;;;;;;;17.67;15.33;;;;;;;2.15;100.00;100501.94;5079673;28;20445;-59
2022/12/05 11:05:10;;;;;;;19.20;15.80;;;;;;;2.20;100.00;100502.56;5080271;28;20437;-59
2022/12/05 11:07:47;;;;;;;19.13;15.43;;;;;;;2.26;99.86;100503.09;5079614;28;20460;-59
2022/12/05 11:10:20;;;;;;;20.93;16.70;;;;;;;2.33;99.34;100502.78;5078134;28;20522;-59
2022/12/05 11:12:47;;;;;;;22.43;17.90;;;;;;;2.38;98.88;100506.88;5080441;28;20444;-59
2022/12/05 11:15:24;;;;;;;20.60;16.33;;;;;;;2.45;98.73;100502.13;5079498;28;20483;-58
2022/12/05 11:17:51;;;;;;;22.40;17.63;;;;;;;2.43;98.62;100498.69;5079459;28;20519;-59
2022/12/05 11:20:39;;;;;;;21.27;17.90;;;;;;;2.49;98.41;100500.16;5074792;28;20483;-59
2022/12/05 11:23:24;;;;;;;20.23;17.47;;;;;;;2.49;98.22;100498.38;5079367;28;20479;-59